sensor_id;sensor_type;location;lat;lon;timestamp;temperature;humidity
30379;DHT22;17168;49.164;9.060;2023-01-10T00:00:30;6.80;99.90
30379;DHT22;17168;49.164;9.060;2023-01-10T00:03:06;6.80;99.90
30379;DHT22;17168;49.164;9.060;2023-01-10T00:05:39;6.70;99.90
30379;DHT22;17168;49.164;9.060;2023-01-10T00:08:13;6.70;99.90
30379;DHT22;17168;49.164;9.060;2023-01-10T00:10:46;6.70;99.90
30379;DHT22;17168;49.164;9.060;2023-01-10T00:13:18;6.70;99.90
30379;DHT22;17168;49.164;9.060;2023-01-10T00:15:55;6.70;99.90
30379;DHT22;17168;49.164;9.060;2023-01-10T00:18:27;6.70;99.90
30379;DHT22;17168;49.164;9.060;2023-01-10T00:20:58;6.70;99.90
30379;DHT22;17168;49.164;9.060;2023-01-10T00:23:30;6.70;99.90
30379;DHT22;17168;49.164;9.060;2023-01-10T00:26:03;6.60;99.90
30379;DHT22;17168;49.164;9.060;2023-01-10T00:28:35;6.60;99.90
30379;DHT22;17168;49.164;9.060;2023-01-10T00:31:07;6.70;99.90
30379;DHT22;17168;49.164;9.060;2023-01-10T00:33:41;6.60;99.90
30379;DHT22;17168;49.164;9.060;2023-01-10T00:36:12;6.70;99.90
30379;DHT22;17168;49.164;9.060;2023-01-10T00:38:44;6.60;99.90
30379;DHT22;17168;49.164;9.060;2023-01-10T00:41:17;6.60;99.90
30379;DHT22;17168;49.164;9.060;2023-01-10T00:44:07;6.60;99.90
30379;DHT22;17168;49.164;9.060;2023-01-10T00:46:39;6.60;99.90
30379;DHT22;17168;49.164;9.060;2023-01-10T00:49:11;6.60;99.90
30379;DHT22;17168;49.164;9.060;2023-01-10T00:51:45;6.60;99.90
30379;DHT22;17168;49.164;9.060;2023-01-10T00:54:17;6.60;99.90
30379;DHT22;17168;49.164;9.060;2023-01-10T00:56:50;6.60;99.90
30379;DHT22;17168;49.164;9.060;2023-01-10T00:59:22;6.60;99.90
30379;DHT22;17168;49.164;9.060;2023-01-10T01:01:53;6.70;99.90
30379;DHT22;17168;49.164;9.060;2023-01-10T01:04:25;6.70;99.90
30379;DHT22;17168;49.164;9.060;2023-01-10T01:06:57;6.60;99.90
30379;DHT22;17168;49.164;9.060;2023-01-10T01:09:30;6.60;99.90
30379;DHT22;17168;49.164;9.060;2023-01-10T01:12:03;6.60;99.90
30379;DHT22;17168;49.164;9.060;2023-01-10T01:14:35;6.60;99.90
30379;DHT22;17168;49.164;9.060;2023-01-10T01:17:06;6.60;99.90
30379;DHT22;17168;49.164;9.060;2023-01-10T01:19:38;6.60;99.90
30379;DHT22;17168;49.164;9.060;2023-01-10T01:22:10;6.60;99.90
30379;DHT22;17168;49.164;9.060;2023-01-10T01:24:41;6.70;99.90
30379;DHT22;17168;49.164;9.060;2023-01-10T01:27:14;6.70;99.90
30379;DHT22;17168;49.164;9.060;2023-01-10T01:29:46;6.70;99.90
30379;DHT22;17168;49.164;9.060;2023-01-10T01:32:18;6.70;99.90
30379;DHT22;17168;49.164;9.060;2023-01-10T01:34:49;6.70;99.90
30379;DHT22;17168;49.164;9.060;2023-01-10T01:37:21;6.70;99.90
30379;DHT22;17168;49.164;9.060;2023-01-10T01:39:53;6.70;99.90
30379;DHT22;17168;49.164;9.060;2023-01-10T01:42:26;6.70;99.90
30379;DHT22;17168;49.164;9.060;2023-01-10T01:45:05;6.70;99.90
30379;DHT22;17168;49.164;9.060;2023-01-10T01:47:52;6.80;99.90
30379;DHT22;17168;49.164;9.060;2023-01-10T01:50:26;6.80;99.90
30379;DHT22;17168;49.164;9.060;2023-01-10T01:53:00;6.80;99.90
30379;DHT22;17168;49.164;9.060;2023-01-10T01:55:32;6.80;99.90
30379;DHT22;17168;49.164;9.060;2023-01-10T01:58:07;6.80;99.90
30379;DHT22;17168;49.164;9.060;2023-01-10T02:00:39;6.80;99.90
30379;DHT22;17168;49.164;9.060;2023-01-10T02:03:11;6.80;99.90
30379;DHT22;17168;49.164;9.060;2023-01-10T02:05:44;6.80;99.90
30379;DHT22;17168;49.164;9.060;2023-01-10T02:08:16;6.80;99.90
30379;DHT22;17168;49.164;9.060;2023-01-10T02:10:50;6.80;99.90
30379;DHT22;17168;49.164;9.060;2023-01-10T02:13:24;6.80;99.90
30379;DHT22;17168;49.164;9.060;2023-01-10T02:15:56;6.80;99.90
30379;DHT22;17168;49.164;9.060;2023-01-10T02:18:28;6.80;99.90
30379;DHT22;17168;49.164;9.060;2023-01-10T02:21:09;6.80;99.90
30379;DHT22;17168;49.164;9.060;2023-01-10T02:23:56;6.90;99.90
30379;DHT22;17168;49.164;9.060;2023-01-10T02:29:45;6.90;99.90
30379;DHT22;17168;49.164;9.060;2023-01-10T02:32:29;6.80;99.90
30379;DHT22;17168;49.164;9.060;2023-01-10T02:35:24;6.80;99.90
30379;DHT22;17168;49.164;9.060;2023-01-10T02:37:59;6.90;99.90
30379;DHT22;17168;49.164;9.060;2023-01-10T02:40:38;6.90;99.90
30379;DHT22;17168;49.164;9.060;2023-01-10T02:43:15;6.90;99.90
30379;DHT22;17168;49.164;9.060;2023-01-10T02:45:53;6.80;99.90
30379;DHT22;17168;49.164;9.060;2023-01-10T02:48:30;6.80;99.90
30379;DHT22;17168;49.164;9.060;2023-01-10T02:51:02;6.80;99.90
30379;DHT22;17168;49.164;9.060;2023-01-10T02:53:38;6.80;99.90
30379;DHT22;17168;49.164;9.060;2023-01-10T02:56:23;6.80;99.90
30379;DHT22;17168;49.164;9.060;2023-01-10T02:59:05;6.80;99.90
30379;DHT22;17168;49.164;9.060;2023-01-10T03:01:43;6.80;99.90
30379;DHT22;17168;49.164;9.060;2023-01-10T03:04:21;6.80;99.90
30379;DHT22;17168;49.164;9.060;2023-01-10T03:06:57;6.80;99.90
30379;DHT22;17168;49.164;9.060;2023-01-10T03:09:34;6.80;99.90
30379;DHT22;17168;49.164;9.060;2023-01-10T03:12:07;6.70;99.90
30379;DHT22;17168;49.164;9.060;2023-01-10T03:14:40;6.70;99.90
30379;DHT22;17168;49.164;9.060;2023-01-10T03:17:13;6.70;99.90
30379;DHT22;17168;49.164;9.060;2023-01-10T03:19:47;6.70;99.90
30379;DHT22;17168;49.164;9.060;2023-01-10T03:22:20;6.70;99.90
30379;DHT22;17168;49.164;9.060;2023-01-10T03:24:54;6.70;99.90
30379;DHT22;17168;49.164;9.060;2023-01-10T03:27:27;6.70;99.90
30379;DHT22;17168;49.164;9.060;2023-01-10T03:30:01;6.70;99.90
30379;DHT22;17168;49.164;9.060;2023-01-10T03:32:36;6.70;99.90
30379;DHT22;17168;49.164;9.060;2023-01-10T03:35:10;6.60;99.90
30379;DHT22;17168;49.164;9.060;2023-01-10T03:37:43;6.60;99.90
30379;DHT22;17168;49.164;9.060;2023-01-10T03:40:17;6.60;99.90
30379;DHT22;17168;49.164;9.060;2023-01-10T03:42:53;6.60;99.90
30379;DHT22;17168;49.164;9.060;2023-01-10T03:45:47;6.60;99.90
30379;DHT22;17168;49.164;9.060;2023-01-10T03:48:20;6.50;99.90
30379;DHT22;17168;49.164;9.060;2023-01-10T03:50:54;6.50;99.90
30379;DHT22;17168;49.164;9.060;2023-01-10T03:53:26;6.50;99.90
30379;DHT22;17168;49.164;9.060;2023-01-10T03:55:58;6.50;99.90
30379;DHT22;17168;49.164;9.060;2023-01-10T03:58:30;6.50;99.90
30379;DHT22;17168;49.164;9.060;2023-01-10T04:01:02;6.50;99.90
30379;DHT22;17168;49.164;9.060;2023-01-10T04:03:35;6.50;99.90
30379;DHT22;17168;49.164;9.060;2023-01-10T04:06:12;6.50;99.90
30379;DHT22;17168;49.164;9.060;2023-01-10T04:08:44;6.40;99.90
30379;DHT22;17168;49.164;9.060;2023-01-10T04:11:16;6.40;99.90
30379;DHT22;17168;49.164;9.060;2023-01-10T04:13:48;6.40;99.90
30379;DHT22;17168;49.164;9.060;2023-01-10T04:16:20;6.40;99.90
30379;DHT22;17168;49.164;9.060;2023-01-10T04:18:52;6.40;99.90
30379;DHT22;17168;49.164;9.060;2023-01-10T04:21:25;6.40;99.90
30379;DHT22;17168;49.164;9.060;2023-01-10T04:23:56;6.40;99.90
30379;DHT22;17168;49.164;9.060;2023-01-10T04:26:28;6.40;99.90
30379;DHT22;17168;49.164;9.060;2023-01-10T04:29:00;6.40;99.90
30379;DHT22;17168;49.164;9.060;2023-01-10T04:31:31;6.40;99.90
30379;DHT22;17168;49.164;9.060;2023-01-10T04:34:03;6.40;99.90
30379;DHT22;17168;49.164;9.060;2023-01-10T04:36:36;6.40;99.90
30379;DHT22;17168;49.164;9.060;2023-01-10T04:39:08;6.40;99.90
30379;DHT22;17168;49.164;9.060;2023-01-10T04:41:40;6.40;99.90
30379;DHT22;17168;49.164;9.060;2023-01-10T04:44:12;6.40;99.90
30379;DHT22;17168;49.164;9.060;2023-01-10T04:46:44;6.40;99.90
30379;DHT22;17168;49.164;9.060;2023-01-10T04:49:16;6.40;99.90
30379;DHT22;17168;49.164;9.060;2023-01-10T04:51:49;6.40;99.90
30379;DHT22;17168;49.164;9.060;2023-01-10T04:54:21;6.40;99.90
30379;DHT22;17168;49.164;9.060;2023-01-10T04:56:53;6.40;99.90
30379;DHT22;17168;49.164;9.060;2023-01-10T04:59:25;6.40;99.90
30379;DHT22;17168;49.164;9.060;2023-01-10T05:01:57;6.40;99.90
30379;DHT22;17168;49.164;9.060;2023-01-10T05:04:32;6.40;99.90
30379;DHT22;17168;49.164;9.060;2023-01-10T05:07:05;6.40;99.90
30379;DHT22;17168;49.164;9.060;2023-01-10T05:09:37;6.40;99.90
30379;DHT22;17168;49.164;9.060;2023-01-10T05:12:09;6.40;99.90
30379;DHT22;17168;49.164;9.060;2023-01-10T05:14:40;6.40;99.90
30379;DHT22;17168;49.164;9.060;2023-01-10T05:17:12;6.40;99.90
30379;DHT22;17168;49.164;9.060;2023-01-10T05:19:44;6.40;99.90
30379;DHT22;17168;49.164;9.060;2023-01-10T05:22:17;6.40;99.90
30379;DHT22;17168;49.164;9.060;2023-01-10T05:24:48;6.40;99.90
30379;DHT22;17168;49.164;9.060;2023-01-10T05:27:20;6.40;99.90
30379;DHT22;17168;49.164;9.060;2023-01-10T05:29:52;6.40;99.90
30379;DHT22;17168;49.164;9.060;2023-01-10T05:32:26;6.40;99.90
30379;DHT22;17168;49.164;9.060;2023-01-10T05:34:59;6.50;99.90
30379;DHT22;17168;49.164;9.060;2023-01-10T05:37:32;6.50;99.90
30379;DHT22;17168;49.164;9.060;2023-01-10T05:40:05;6.50;99.90
30379;DHT22;17168;49.164;9.060;2023-01-10T05:42:37;6.50;99.90
30379;DHT22;17168;49.164;9.060;2023-01-10T05:45:09;6.50;99.90
30379;DHT22;17168;49.164;9.060;2023-01-10T05:47:40;6.50;99.90
30379;DHT22;17168;49.164;9.060;2023-01-10T05:50:12;6.50;99.90
30379;DHT22;17168;49.164;9.060;2023-01-10T05:52:45;6.50;99.90
30379;DHT22;17168;49.164;9.060;2023-01-10T05:55:17;6.40;99.90
30379;DHT22;17168;49.164;9.060;2023-01-10T05:57:49;6.50;99.90
30379;DHT22;17168;49.164;9.060;2023-01-10T06:00:21;6.50;99.90
30379;DHT22;17168;49.164;9.060;2023-01-10T06:02:55;6.40;99.90
30379;DHT22;17168;49.164;9.060;2023-01-10T06:05:27;6.40;99.90
30379;DHT22;17168;49.164;9.060;2023-01-10T06:08:00;6.40;99.90
30379;DHT22;17168;49.164;9.060;2023-01-10T06:10:32;6.40;99.90
30379;DHT22;17168;49.164;9.060;2023-01-10T06:13:04;6.40;99.90
30379;DHT22;17168;49.164;9.060;2023-01-10T06:15:35;6.40;99.90
30379;DHT22;17168;49.164;9.060;2023-01-10T06:18:07;6.40;99.90
30379;DHT22;17168;49.164;9.060;2023-01-10T06:20:47;6.40;99.90
30379;DHT22;17168;49.164;9.060;2023-01-10T06:26:26;6.40;99.90
30379;DHT22;17168;49.164;9.060;2023-01-10T06:29:09;6.40;99.90
30379;DHT22;17168;49.164;9.060;2023-01-10T06:31:41;6.40;99.90
30379;DHT22;17168;49.164;9.060;2023-01-10T06:34:12;6.40;99.90
30379;DHT22;17168;49.164;9.060;2023-01-10T06:36:44;6.40;99.90
30379;DHT22;17168;49.164;9.060;2023-01-10T06:39:16;6.40;99.90
30379;DHT22;17168;49.164;9.060;2023-01-10T06:41:49;6.40;99.90
30379;DHT22;17168;49.164;9.060;2023-01-10T06:44:20;6.40;99.90
30379;DHT22;17168;49.164;9.060;2023-01-10T06:46:52;6.40;99.90
30379;DHT22;17168;49.164;9.060;2023-01-10T06:49:26;6.40;99.90
30379;DHT22;17168;49.164;9.060;2023-01-10T06:51:57;6.40;99.90
30379;DHT22;17168;49.164;9.060;2023-01-10T06:54:29;6.40;99.90
30379;DHT22;17168;49.164;9.060;2023-01-10T06:57:02;6.40;99.90
30379;DHT22;17168;49.164;9.060;2023-01-10T06:59:35;6.40;99.90
30379;DHT22;17168;49.164;9.060;2023-01-10T07:02:07;6.40;99.90
30379;DHT22;17168;49.164;9.060;2023-01-10T07:04:40;6.40;99.90
30379;DHT22;17168;49.164;9.060;2023-01-10T07:07:12;6.40;99.90
30379;DHT22;17168;49.164;9.060;2023-01-10T07:09:43;6.40;99.90
30379;DHT22;17168;49.164;9.060;2023-01-10T07:12:18;6.40;99.90
30379;DHT22;17168;49.164;9.060;2023-01-10T07:14:49;6.50;99.90
30379;DHT22;17168;49.164;9.060;2023-01-10T07:17:21;6.50;99.90
30379;DHT22;17168;49.164;9.060;2023-01-10T07:19:55;6.40;99.90
30379;DHT22;17168;49.164;9.060;2023-01-10T07:22:29;6.50;99.90
30379;DHT22;17168;49.164;9.060;2023-01-10T07:25:01;6.40;99.90
30379;DHT22;17168;49.164;9.060;2023-01-10T07:27:41;6.40;99.90
30379;DHT22;17168;49.164;9.060;2023-01-10T07:30:14;6.50;99.90
30379;DHT22;17168;49.164;9.060;2023-01-10T07:32:52;6.50;99.90
30379;DHT22;17168;49.164;9.060;2023-01-10T07:35:24;6.50;99.90
30379;DHT22;17168;49.164;9.060;2023-01-10T07:37:56;6.50;99.90
30379;DHT22;17168;49.164;9.060;2023-01-10T07:40:28;6.50;99.90
30379;DHT22;17168;49.164;9.060;2023-01-10T07:43:01;6.50;99.90
30379;DHT22;17168;49.164;9.060;2023-01-10T07:45:33;6.50;99.90
30379;DHT22;17168;49.164;9.060;2023-01-10T07:48:05;6.50;99.90
30379;DHT22;17168;49.164;9.060;2023-01-10T07:50:37;6.50;99.90
30379;DHT22;17168;49.164;9.060;2023-01-10T07:53:09;6.50;99.90
30379;DHT22;17168;49.164;9.060;2023-01-10T07:55:40;6.60;99.90
30379;DHT22;17168;49.164;9.060;2023-01-10T07:58:15;6.60;99.90
30379;DHT22;17168;49.164;9.060;2023-01-10T08:00:46;6.60;99.90
30379;DHT22;17168;49.164;9.060;2023-01-10T08:03:20;6.50;99.90
30379;DHT22;17168;49.164;9.060;2023-01-10T08:05:58;6.50;99.90
30379;DHT22;17168;49.164;9.060;2023-01-10T08:08:33;6.50;99.90
30379;DHT22;17168;49.164;9.060;2023-01-10T08:11:05;6.60;99.90
30379;DHT22;17168;49.164;9.060;2023-01-10T08:13:39;6.60;99.90
30379;DHT22;17168;49.164;9.060;2023-01-10T08:16:10;6.60;99.90
30379;DHT22;17168;49.164;9.060;2023-01-10T08:18:42;6.60;99.90
30379;DHT22;17168;49.164;9.060;2023-01-10T08:21:14;6.60;99.90
30379;DHT22;17168;49.164;9.060;2023-01-10T08:23:46;6.60;99.90
30379;DHT22;17168;49.164;9.060;2023-01-10T08:26:17;6.60;99.90
30379;DHT22;17168;49.164;9.060;2023-01-10T08:28:53;6.60;99.90
30379;DHT22;17168;49.164;9.060;2023-01-10T08:31:25;6.70;99.90
30379;DHT22;17168;49.164;9.060;2023-01-10T08:33:56;6.70;99.90
30379;DHT22;17168;49.164;9.060;2023-01-10T08:36:28;6.70;99.90
30379;DHT22;17168;49.164;9.060;2023-01-10T08:39:00;6.70;99.90
30379;DHT22;17168;49.164;9.060;2023-01-10T08:41:32;6.70;99.90
30379;DHT22;17168;49.164;9.060;2023-01-10T08:44:05;6.70;99.90
30379;DHT22;17168;49.164;9.060;2023-01-10T08:46:37;6.70;99.90
30379;DHT22;17168;49.164;9.060;2023-01-10T08:49:10;6.70;99.90
30379;DHT22;17168;49.164;9.060;2023-01-10T08:51:42;6.80;99.90
30379;DHT22;17168;49.164;9.060;2023-01-10T08:54:15;6.80;99.90
30379;DHT22;17168;49.164;9.060;2023-01-10T08:56:46;6.80;99.90
30379;DHT22;17168;49.164;9.060;2023-01-10T08:59:19;6.80;99.90
30379;DHT22;17168;49.164;9.060;2023-01-10T09:01:51;6.80;99.90
30379;DHT22;17168;49.164;9.060;2023-01-10T09:04:23;6.90;99.90
30379;DHT22;17168;49.164;9.060;2023-01-10T09:06:54;6.90;99.90
30379;DHT22;17168;49.164;9.060;2023-01-10T09:09:26;6.90;99.90
30379;DHT22;17168;49.164;9.060;2023-01-10T09:11:58;6.90;99.90
30379;DHT22;17168;49.164;9.060;2023-01-10T09:14:31;6.90;99.90
30379;DHT22;17168;49.164;9.060;2023-01-10T09:17:02;6.90;99.90
30379;DHT22;17168;49.164;9.060;2023-01-10T09:19:34;7.00;99.90
30379;DHT22;17168;49.164;9.060;2023-01-10T09:22:06;7.00;99.90
30379;DHT22;17168;49.164;9.060;2023-01-10T09:24:37;7.00;99.90
30379;DHT22;17168;49.164;9.060;2023-01-10T09:27:09;7.00;99.90
30379;DHT22;17168;49.164;9.060;2023-01-10T09:29:43;7.00;99.90
30379;DHT22;17168;49.164;9.060;2023-01-10T09:32:14;7.00;99.90
30379;DHT22;17168;49.164;9.060;2023-01-10T09:34:47;7.10;99.90
30379;DHT22;17168;49.164;9.060;2023-01-10T09:37:19;7.10;99.90
30379;DHT22;17168;49.164;9.060;2023-01-10T09:39:50;7.10;99.90
30379;DHT22;17168;49.164;9.060;2023-01-10T09:42:26;7.10;99.90
30379;DHT22;17168;49.164;9.060;2023-01-10T09:45:02;7.20;99.90
30379;DHT22;17168;49.164;9.060;2023-01-10T09:47:37;7.20;99.90
30379;DHT22;17168;49.164;9.060;2023-01-10T09:50:14;7.30;99.90
30379;DHT22;17168;49.164;9.060;2023-01-10T09:52:49;7.30;99.90
30379;DHT22;17168;49.164;9.060;2023-01-10T09:55:24;7.30;99.90
30379;DHT22;17168;49.164;9.060;2023-01-10T09:57:57;7.30;99.90
30379;DHT22;17168;49.164;9.060;2023-01-10T10:00:36;7.40;99.90
30379;DHT22;17168;49.164;9.060;2023-01-10T10:03:27;7.40;99.90
30379;DHT22;17168;49.164;9.060;2023-01-10T10:06:11;7.40;99.90
30379;DHT22;17168;49.164;9.060;2023-01-10T10:08:46;7.50;99.90
30379;DHT22;17168;49.164;9.060;2023-01-10T10:11:42;7.40;99.90
30379;DHT22;17168;49.164;9.060;2023-01-10T10:14:26;7.50;99.90
30379;DHT22;17168;49.164;9.060;2023-01-10T10:17:05;7.50;99.90
30379;DHT22;17168;49.164;9.060;2023-01-10T10:19:44;7.50;99.90
30379;DHT22;17168;49.164;9.060;2023-01-10T10:22:20;7.50;99.90
30379;DHT22;17168;49.164;9.060;2023-01-10T10:24:56;7.50;99.90
30379;DHT22;17168;49.164;9.060;2023-01-10T10:27:34;7.50;99.90
30379;DHT22;17168;49.164;9.060;2023-01-10T10:30:17;7.50;99.90
30379;DHT22;17168;49.164;9.060;2023-01-10T10:33:08;7.50;99.90
30379;DHT22;17168;49.164;9.060;2023-01-10T10:35:44;7.50;99.90
30379;DHT22;17168;49.164;9.060;2023-01-10T10:38:21;7.50;99.90
30379;DHT22;17168;49.164;9.060;2023-01-10T10:40:55;7.50;99.90
30379;DHT22;17168;49.164;9.060;2023-01-10T10:43:32;7.50;99.90
30379;DHT22;17168;49.164;9.060;2023-01-10T10:46:06;7.50;99.90
30379;DHT22;17168;49.164;9.060;2023-01-10T10:48:40;7.50;99.90
30379;DHT22;17168;49.164;9.060;2023-01-10T10:51:15;7.50;99.90
30379;DHT22;17168;49.164;9.060;2023-01-10T10:53:49;7.50;99.90
30379;DHT22;17168;49.164;9.060;2023-01-10T10:56:21;7.50;99.90
30379;DHT22;17168;49.164;9.060;2023-01-10T10:58:55;7.50;99.90
30379;DHT22;17168;49.164;9.060;2023-01-10T11:01:27;7.50;99.90
30379;DHT22;17168;49.164;9.060;2023-01-10T11:04:03;7.50;99.90
30379;DHT22;17168;49.164;9.060;2023-01-10T11:06:37;7.50;99.90
30379;DHT22;17168;49.164;9.060;2023-01-10T11:09:11;7.50;99.90
30379;DHT22;17168;49.164;9.060;2023-01-10T11:11:45;7.50;99.90
30379;DHT22;17168;49.164;9.060;2023-01-10T11:17:16;7.60;99.90
30379;DHT22;17168;49.164;9.060;2023-01-10T11:19:56;7.60;99.90
30379;DHT22;17168;49.164;9.060;2023-01-10T11:22:30;7.60;99.90
30379;DHT22;17168;49.164;9.060;2023-01-10T11:25:12;7.60;99.90
30379;DHT22;17168;49.164;9.060;2023-01-10T11:27:45;7.60;99.90
30379;DHT22;17168;49.164;9.060;2023-01-10T11:30:19;7.60;99.90
30379;DHT22;17168;49.164;9.060;2023-01-10T11:32:52;7.60;99.90
30379;DHT22;17168;49.164;9.060;2023-01-10T11:35:27;7.70;99.90
30379;DHT22;17168;49.164;9.060;2023-01-10T11:37:59;7.70;99.90
30379;DHT22;17168;49.164;9.060;2023-01-10T11:40:32;7.70;99.90
30379;DHT22;17168;49.164;9.060;2023-01-10T11:45:52;7.70;99.90
30379;DHT22;17168;49.164;9.060;2023-01-10T11:48:24;7.70;99.90
30379;DHT22;17168;49.164;9.060;2023-01-10T11:51:21;7.80;99.90
30379;DHT22;17168;49.164;9.060;2023-01-10T11:53:57;7.80;99.90
30379;DHT22;17168;49.164;9.060;2023-01-10T11:56:31;7.80;99.90
30379;DHT22;17168;49.164;9.060;2023-01-10T11:59:06;7.80;99.90
30379;DHT22;17168;49.164;9.060;2023-01-10T12:01:43;7.90;99.90
30379;DHT22;17168;49.164;9.060;2023-01-10T12:04:18;7.90;99.90
30379;DHT22;17168;49.164;9.060;2023-01-10T12:06:58;8.00;99.90
30379;DHT22;17168;49.164;9.060;2023-01-10T12:09:31;8.00;99.90
30379;DHT22;17168;49.164;9.060;2023-01-10T12:12:03;8.10;99.90
30379;DHT22;17168;49.164;9.060;2023-01-10T12:14:35;8.10;99.90
30379;DHT22;17168;49.164;9.060;2023-01-10T12:17:09;8.10;99.90
30379;DHT22;17168;49.164;9.060;2023-01-10T12:19:41;8.10;99.90
30379;DHT22;17168;49.164;9.060;2023-01-10T12:22:14;8.10;98.80
30379;DHT22;17168;49.164;9.060;2023-01-10T12:24:46;8.10;98.40
30379;DHT22;17168;49.164;9.060;2023-01-10T12:27:19;8.20;98.50
30379;DHT22;17168;49.164;9.060;2023-01-10T12:29:52;8.30;98.00
30379;DHT22;17168;49.164;9.060;2023-01-10T12:32:29;8.40;98.50
30379;DHT22;17168;49.164;9.060;2023-01-10T12:35:03;8.40;98.40
30379;DHT22;17168;49.164;9.060;2023-01-10T12:37:40;8.50;98.50
30379;DHT22;17168;49.164;9.060;2023-01-10T12:40:18;8.60;98.70
30379;DHT22;17168;49.164;9.060;2023-01-10T12:42:57;8.90;99.50
30379;DHT22;17168;49.164;9.060;2023-01-10T12:45:55;9.30;99.70
30379;DHT22;17168;49.164;9.060;2023-01-10T12:48:42;9.60;98.20
30379;DHT22;17168;49.164;9.060;2023-01-10T12:51:19;9.90;96.40
30379;DHT22;17168;49.164;9.060;2023-01-10T12:53:57;9.90;94.60
30379;DHT22;17168;49.164;9.060;2023-01-10T12:56:31;10.00;93.30
30379;DHT22;17168;49.164;9.060;2023-01-10T12:59:13;10.00;93.00
30379;DHT22;17168;49.164;9.060;2023-01-10T13:02:05;10.10;92.60
30379;DHT22;17168;49.164;9.060;2023-01-10T13:04:39;10.20;92.10
30379;DHT22;17168;49.164;9.060;2023-01-10T13:07:12;10.30;91.90
30379;DHT22;17168;49.164;9.060;2023-01-10T13:09:46;10.20;91.10
30379;DHT22;17168;49.164;9.060;2023-01-10T13:12:22;10.20;90.50
30379;DHT22;17168;49.164;9.060;2023-01-10T13:14:59;10.00;90.30
30379;DHT22;17168;49.164;9.060;2023-01-10T13:17:38;9.90;90.30
30379;DHT22;17168;49.164;9.060;2023-01-10T13:20:38;9.90;90.40
30379;DHT22;17168;49.164;9.060;2023-01-10T13:23:21;10.00;89.60
30379;DHT22;17168;49.164;9.060;2023-01-10T13:25:57;10.00;88.60
30379;DHT22;17168;49.164;9.060;2023-01-10T13:28:31;10.10;88.20
30379;DHT22;17168;49.164;9.060;2023-01-10T13:31:19;10.10;87.40
30379;DHT22;17168;49.164;9.060;2023-01-10T13:33:53;10.20;87.40
30379;DHT22;17168;49.164;9.060;2023-01-10T13:36:36;10.10;86.80
30379;DHT22;17168;49.164;9.060;2023-01-10T13:39:20;10.20;87.10
30379;DHT22;17168;49.164;9.060;2023-01-10T13:42:27;10.20;86.90
30379;DHT22;17168;49.164;9.060;2023-01-10T13:45:23;10.10;87.30
30379;DHT22;17168;49.164;9.060;2023-01-10T13:48:04;9.90;86.60
30379;DHT22;17168;49.164;9.060;2023-01-10T13:53:49;9.70;86.80
30379;DHT22;17168;49.164;9.060;2023-01-10T13:56:30;9.70;86.20
30379;DHT22;17168;49.164;9.060;2023-01-10T13:59:09;9.50;86.30
30379;DHT22;17168;49.164;9.060;2023-01-10T14:02:01;9.50;86.20
30379;DHT22;17168;49.164;9.060;2023-01-10T14:05:06;9.40;86.00
30379;DHT22;17168;49.164;9.060;2023-01-10T14:07:47;9.30;86.00
30379;DHT22;17168;49.164;9.060;2023-01-10T14:10:21;9.30;85.20
30379;DHT22;17168;49.164;9.060;2023-01-10T14:12:56;9.20;85.50
30379;DHT22;17168;49.164;9.060;2023-01-10T14:15:36;9.20;85.70
30379;DHT22;17168;49.164;9.060;2023-01-10T14:18:18;9.10;85.60
30379;DHT22;17168;49.164;9.060;2023-01-10T14:20:56;9.20;85.40
30379;DHT22;17168;49.164;9.060;2023-01-10T14:23:33;9.10;85.40
30379;DHT22;17168;49.164;9.060;2023-01-10T14:26:07;9.10;85.40
30379;DHT22;17168;49.164;9.060;2023-01-10T14:28:44;9.10;85.50
30379;DHT22;17168;49.164;9.060;2023-01-10T14:31:19;9.00;85.40
30379;DHT22;17168;49.164;9.060;2023-01-10T14:33:52;9.00;85.40
30379;DHT22;17168;49.164;9.060;2023-01-10T14:36:27;9.00;85.60
30379;DHT22;17168;49.164;9.060;2023-01-10T14:39:02;8.90;85.60
30379;DHT22;17168;49.164;9.060;2023-01-10T14:41:38;8.90;85.30
30379;DHT22;17168;49.164;9.060;2023-01-10T14:44:16;8.90;85.30
30379;DHT22;17168;49.164;9.060;2023-01-10T14:46:50;8.80;85.20
30379;DHT22;17168;49.164;9.060;2023-01-10T14:49:25;8.80;85.10
30379;DHT22;17168;49.164;9.060;2023-01-10T14:52:10;8.80;85.50
30379;DHT22;17168;49.164;9.060;2023-01-10T14:54:42;8.70;85.90
30379;DHT22;17168;49.164;9.060;2023-01-10T14:57:17;8.70;86.20
30379;DHT22;17168;49.164;9.060;2023-01-10T14:59:49;8.70;86.80
30379;DHT22;17168;49.164;9.060;2023-01-10T15:02:24;8.70;87.40
30379;DHT22;17168;49.164;9.060;2023-01-10T15:05:00;8.60;87.90
30379;DHT22;17168;49.164;9.060;2023-01-10T15:07:37;8.60;88.50
30379;DHT22;17168;49.164;9.060;2023-01-10T15:10:19;8.60;89.10
30379;DHT22;17168;49.164;9.060;2023-01-10T15:12:52;8.50;89.30
30379;DHT22;17168;49.164;9.060;2023-01-10T15:15:26;8.50;89.60
30379;DHT22;17168;49.164;9.060;2023-01-10T15:18:04;8.50;90.00
30379;DHT22;17168;49.164;9.060;2023-01-10T15:20:37;8.50;90.20
30379;DHT22;17168;49.164;9.060;2023-01-10T15:23:10;8.50;90.40
30379;DHT22;17168;49.164;9.060;2023-01-10T15:25:53;8.50;90.60
30379;DHT22;17168;49.164;9.060;2023-01-10T15:28:26;8.40;90.80
30379;DHT22;17168;49.164;9.060;2023-01-10T15:30:59;8.40;91.00
30379;DHT22;17168;49.164;9.060;2023-01-10T15:33:33;8.40;91.20
30379;DHT22;17168;49.164;9.060;2023-01-10T15:36:11;8.30;91.40
30379;DHT22;17168;49.164;9.060;2023-01-10T15:38:46;8.30;91.50
30379;DHT22;17168;49.164;9.060;2023-01-10T15:41:20;8.30;91.60
30379;DHT22;17168;49.164;9.060;2023-01-10T15:43:53;8.30;91.80
30379;DHT22;17168;49.164;9.060;2023-01-10T15:46:25;8.20;91.90
30379;DHT22;17168;49.164;9.060;2023-01-10T15:48:59;8.20;92.20
30379;DHT22;17168;49.164;9.060;2023-01-10T15:51:32;8.10;92.30
30379;DHT22;17168;49.164;9.060;2023-01-10T15:54:05;8.10;92.50
30379;DHT22;17168;49.164;9.060;2023-01-10T15:56:58;8.10;92.60
30379;DHT22;17168;49.164;9.060;2023-01-10T15:59:31;8.10;92.60
30379;DHT22;17168;49.164;9.060;2023-01-10T16:02:11;8.00;92.70
30379;DHT22;17168;49.164;9.060;2023-01-10T16:04:51;8.00;92.70
30379;DHT22;17168;49.164;9.060;2023-01-10T16:07:26;8.00;92.80
30379;DHT22;17168;49.164;9.060;2023-01-10T16:10:00;7.90;93.10
30379;DHT22;17168;49.164;9.060;2023-01-10T16:12:34;7.80;93.30
30379;DHT22;17168;49.164;9.060;2023-01-10T16:15:25;7.80;93.40
30379;DHT22;17168;49.164;9.060;2023-01-10T16:17:57;7.80;93.50
30379;DHT22;17168;49.164;9.060;2023-01-10T16:20:32;7.70;93.70
30379;DHT22;17168;49.164;9.060;2023-01-10T16:23:05;7.70;94.00
30379;DHT22;17168;49.164;9.060;2023-01-10T16:25:43;7.70;94.00
30379;DHT22;17168;49.164;9.060;2023-01-10T16:28:16;7.70;94.20
30379;DHT22;17168;49.164;9.060;2023-01-10T16:30:48;7.60;94.30
30379;DHT22;17168;49.164;9.060;2023-01-10T16:33:21;7.60;94.60
30379;DHT22;17168;49.164;9.060;2023-01-10T16:35:58;7.60;94.70
30379;DHT22;17168;49.164;9.060;2023-01-10T16:38:30;7.60;94.70
30379;DHT22;17168;49.164;9.060;2023-01-10T16:41:02;7.60;94.70
30379;DHT22;17168;49.164;9.060;2023-01-10T16:43:52;7.60;94.60
30379;DHT22;17168;49.164;9.060;2023-01-10T16:46:25;7.60;94.50
30379;DHT22;17168;49.164;9.060;2023-01-10T16:49:19;7.60;94.40